sensor_id;sensor_type;location;lat;lon;timestamp;P1;durP1;ratioP1;P2;durP2;ratioP2
7074;SDS011;3578;51.568;6.932;2023-03-12T00:01:15;24.17;;;14.70;;
7074;SDS011;3578;51.568;6.932;2023-03-12T00:03:46;25.37;;;15.77;;
7074;SDS011;3578;51.568;6.932;2023-03-12T00:06:14;17.87;;;14.30;;
7074;SDS011;3578;51.568;6.932;2023-03-12T00:08:41;19.90;;;14.30;;
7074;SDS011;3578;51.568;6.932;2023-03-12T00:11:08;22.53;;;14.23;;
7074;SDS011;3578;51.568;6.932;2023-03-12T00:13:37;16.43;;;13.63;;
7074;SDS011;3578;51.568;6.932;2023-03-12T00:16:05;22.27;;;14.60;;
7074;SDS011;3578;51.568;6.932;2023-03-12T00:18:34;17.73;;;13.70;;
7074;SDS011;3578;51.568;6.932;2023-03-12T00:21:03;18.10;;;12.77;;
7074;SDS011;3578;51.568;6.932;2023-03-12T00:23:32;19.60;;;13.70;;
7074;SDS011;3578;51.568;6.932;2023-03-12T00:25:59;16.33;;;13.57;;
7074;SDS011;3578;51.568;6.932;2023-03-12T00:28:27;15.80;;;12.37;;
7074;SDS011;3578;51.568;6.932;2023-03-12T00:30:55;16.90;;;13.00;;
7074;SDS011;3578;51.568;6.932;2023-03-12T00:33:23;19.20;;;12.27;;
7074;SDS011;3578;51.568;6.932;2023-03-12T00:35:50;15.53;;;11.73;;
7074;SDS011;3578;51.568;6.932;2023-03-12T00:38:20;14.57;;;11.70;;
7074;SDS011;3578;51.568;6.932;2023-03-12T00:40:48;15.80;;;11.73;;
7074;SDS011;3578;51.568;6.932;2023-03-12T00:43:15;23.43;;;12.53;;
7074;SDS011;3578;51.568;6.932;2023-03-12T00:45:42;13.53;;;12.13;;
7074;SDS011;3578;51.568;6.932;2023-03-12T00:48:09;21.57;;;13.77;;
7074;SDS011;3578;51.568;6.932;2023-03-12T00:50:37;15.60;;;12.50;;
7074;SDS011;3578;51.568;6.932;2023-03-12T00:53:04;21.33;;;11.77;;
7074;SDS011;3578;51.568;6.932;2023-03-12T00:55:32;15.83;;;13.30;;
7074;SDS011;3578;51.568;6.932;2023-03-12T00:57:59;16.17;;;11.50;;
7074;SDS011;3578;51.568;6.932;2023-03-12T01:00:26;15.97;;;12.07;;
7074;SDS011;3578;51.568;6.932;2023-03-12T01:02:54;15.17;;;12.60;;
7074;SDS011;3578;51.568;6.932;2023-03-12T01:05:21;21.63;;;12.97;;
7074;SDS011;3578;51.568;6.932;2023-03-12T01:07:48;14.33;;;12.03;;
7074;SDS011;3578;51.568;6.932;2023-03-12T01:10:16;16.43;;;10.77;;
7074;SDS011;3578;51.568;6.932;2023-03-12T01:12:46;15.87;;;11.87;;
7074;SDS011;3578;51.568;6.932;2023-03-12T01:15:14;17.50;;;11.63;;
7074;SDS011;3578;51.568;6.932;2023-03-12T01:17:43;12.37;;;10.77;;
7074;SDS011;3578;51.568;6.932;2023-03-12T01:20:10;16.43;;;11.70;;
7074;SDS011;3578;51.568;6.932;2023-03-12T01:22:38;15.77;;;11.90;;
7074;SDS011;3578;51.568;6.932;2023-03-12T01:25:05;17.63;;;11.30;;
7074;SDS011;3578;51.568;6.932;2023-03-12T01:27:33;13.10;;;10.33;;
7074;SDS011;3578;51.568;6.932;2023-03-12T01:30:02;13.57;;;9.57;;
7074;SDS011;3578;51.568;6.932;2023-03-12T01:32:30;14.33;;;10.17;;
7074;SDS011;3578;51.568;6.932;2023-03-12T01:34:57;11.20;;;9.20;;
7074;SDS011;3578;51.568;6.932;2023-03-12T01:37:25;16.80;;;8.67;;
7074;SDS011;3578;51.568;6.932;2023-03-12T01:39:53;13.40;;;8.73;;
7074;SDS011;3578;51.568;6.932;2023-03-12T01:42:20;10.43;;;9.00;;
7074;SDS011;3578;51.568;6.932;2023-03-12T01:44:51;11.70;;;9.13;;
7074;SDS011;3578;51.568;6.932;2023-03-12T01:47:21;13.23;;;9.77;;
7074;SDS011;3578;51.568;6.932;2023-03-12T01:49:49;11.20;;;7.23;;
7074;SDS011;3578;51.568;6.932;2023-03-12T01:52:19;14.27;;;8.03;;
7074;SDS011;3578;51.568;6.932;2023-03-12T01:54:52;12.40;;;8.33;;
7074;SDS011;3578;51.568;6.932;2023-03-12T01:57:25;12.97;;;9.00;;
7074;SDS011;3578;51.568;6.932;2023-03-12T01:59:57;9.60;;;8.03;;
7074;SDS011;3578;51.568;6.932;2023-03-12T02:02:30;9.97;;;7.13;;
7074;SDS011;3578;51.568;6.932;2023-03-12T02:04:59;7.83;;;7.13;;
7074;SDS011;3578;51.568;6.932;2023-03-12T02:07:33;8.27;;;7.10;;
7074;SDS011;3578;51.568;6.932;2023-03-12T02:10:00;11.77;;;7.93;;
7074;SDS011;3578;51.568;6.932;2023-03-12T02:12:29;8.10;;;6.77;;
7074;SDS011;3578;51.568;6.932;2023-03-12T02:14:56;11.30;;;5.60;;
7074;SDS011;3578;51.568;6.932;2023-03-12T02:17:24;7.50;;;5.70;;
7074;SDS011;3578;51.568;6.932;2023-03-12T02:19:54;8.90;;;5.33;;
7074;SDS011;3578;51.568;6.932;2023-03-12T02:22:33;7.53;;;5.47;;
7074;SDS011;3578;51.568;6.932;2023-03-12T02:25:03;7.90;;;6.10;;
7074;SDS011;3578;51.568;6.932;2023-03-12T02:27:47;9.10;;;6.37;;
7074;SDS011;3578;51.568;6.932;2023-03-12T02:30:14;11.87;;;7.07;;
7074;SDS011;3578;51.568;6.932;2023-03-12T02:32:42;8.27;;;6.60;;
7074;SDS011;3578;51.568;6.932;2023-03-12T02:35:12;10.73;;;6.17;;
7074;SDS011;3578;51.568;6.932;2023-03-12T02:37:49;8.03;;;6.53;;
7074;SDS011;3578;51.568;6.932;2023-03-12T02:40:21;9.13;;;7.03;;
7074;SDS011;3578;51.568;6.932;2023-03-12T02:42:53;8.97;;;7.23;;
7074;SDS011;3578;51.568;6.932;2023-03-12T02:45:21;6.57;;;5.90;;
7074;SDS011;3578;51.568;6.932;2023-03-12T02:47:50;8.10;;;6.97;;
7074;SDS011;3578;51.568;6.932;2023-03-12T02:50:17;9.23;;;7.00;;
7074;SDS011;3578;51.568;6.932;2023-03-12T02:52:44;8.50;;;6.47;;
7074;SDS011;3578;51.568;6.932;2023-03-12T02:55:11;10.47;;;7.50;;
7074;SDS011;3578;51.568;6.932;2023-03-12T02:57:39;7.43;;;6.73;;
7074;SDS011;3578;51.568;6.932;2023-03-12T03:00:09;10.57;;;6.80;;
7074;SDS011;3578;51.568;6.932;2023-03-12T03:02:39;8.90;;;5.37;;
7074;SDS011;3578;51.568;6.932;2023-03-12T03:05:07;8.37;;;6.10;;
7074;SDS011;3578;51.568;6.932;2023-03-12T03:07:36;6.30;;;5.60;;
7074;SDS011;3578;51.568;6.932;2023-03-12T03:10:04;9.80;;;6.87;;
7074;SDS011;3578;51.568;6.932;2023-03-12T03:12:33;12.47;;;6.47;;
7074;SDS011;3578;51.568;6.932;2023-03-12T03:15:03;5.00;;;4.50;;
7074;SDS011;3578;51.568;6.932;2023-03-12T03:17:31;5.90;;;5.37;;
7074;SDS011;3578;51.568;6.932;2023-03-12T03:19:58;4.83;;;3.97;;
7074;SDS011;3578;51.568;6.932;2023-03-12T03:22:25;6.57;;;5.50;;
7074;SDS011;3578;51.568;6.932;2023-03-12T03:24:53;5.70;;;5.10;;
7074;SDS011;3578;51.568;6.932;2023-03-12T03:27:20;6.63;;;4.73;;
7074;SDS011;3578;51.568;6.932;2023-03-12T03:29:47;6.30;;;5.40;;
7074;SDS011;3578;51.568;6.932;2023-03-12T03:32:15;6.00;;;5.50;;
7074;SDS011;3578;51.568;6.932;2023-03-12T03:34:42;7.70;;;5.80;;
7074;SDS011;3578;51.568;6.932;2023-03-12T03:37:09;7.70;;;5.80;;
7074;SDS011;3578;51.568;6.932;2023-03-12T03:39:36;6.83;;;6.13;;
7074;SDS011;3578;51.568;6.932;2023-03-12T03:42:03;6.40;;;5.80;;
7074;SDS011;3578;51.568;6.932;2023-03-12T03:44:30;7.87;;;5.77;;
7074;SDS011;3578;51.568;6.932;2023-03-12T03:46:57;6.37;;;4.57;;
7074;SDS011;3578;51.568;6.932;2023-03-12T03:49:26;6.70;;;5.63;;
7074;SDS011;3578;51.568;6.932;2023-03-12T03:51:53;8.03;;;5.40;;
7074;SDS011;3578;51.568;6.932;2023-03-12T03:54:20;6.37;;;4.83;;
7074;SDS011;3578;51.568;6.932;2023-03-12T03:56:47;5.13;;;4.40;;
7074;SDS011;3578;51.568;6.932;2023-03-12T03:59:14;6.50;;;5.20;;
7074;SDS011;3578;51.568;6.932;2023-03-12T04:01:41;5.40;;;4.17;;
7074;SDS011;3578;51.568;6.932;2023-03-12T04:04:08;7.63;;;4.70;;
7074;SDS011;3578;51.568;6.932;2023-03-12T04:06:36;7.33;;;5.10;;
7074;SDS011;3578;51.568;6.932;2023-03-12T04:09:03;6.53;;;4.60;;
7074;SDS011;3578;51.568;6.932;2023-03-12T04:11:30;4.23;;;3.90;;
7074;SDS011;3578;51.568;6.932;2023-03-12T04:13:57;4.83;;;4.30;;
7074;SDS011;3578;51.568;6.932;2023-03-12T04:16:24;7.00;;;4.40;;
7074;SDS011;3578;51.568;6.932;2023-03-12T04:18:51;4.60;;;4.23;;
7074;SDS011;3578;51.568;6.932;2023-03-12T04:21:19;4.40;;;3.57;;
7074;SDS011;3578;51.568;6.932;2023-03-12T04:23:47;6.30;;;3.80;;
7074;SDS011;3578;51.568;6.932;2023-03-12T04:26:14;6.80;;;4.30;;
7074;SDS011;3578;51.568;6.932;2023-03-12T04:28:41;6.57;;;3.53;;
7074;SDS011;3578;51.568;6.932;2023-03-12T04:31:09;4.10;;;3.70;;
7074;SDS011;3578;51.568;6.932;2023-03-12T04:33:37;6.60;;;3.40;;
7074;SDS011;3578;51.568;6.932;2023-03-12T04:36:05;4.87;;;3.50;;
7074;SDS011;3578;51.568;6.932;2023-03-12T04:38:33;4.40;;;3.77;;
7074;SDS011;3578;51.568;6.932;2023-03-12T04:41:02;5.70;;;3.80;;
7074;SDS011;3578;51.568;6.932;2023-03-12T04:43:31;3.03;;;2.87;;
7074;SDS011;3578;51.568;6.932;2023-03-12T04:45:59;6.33;;;3.80;;
7074;SDS011;3578;51.568;6.932;2023-03-12T04:48:27;5.10;;;2.93;;
7074;SDS011;3578;51.568;6.932;2023-03-12T04:50:54;3.80;;;3.03;;
7074;SDS011;3578;51.568;6.932;2023-03-12T04:53:22;5.40;;;2.97;;
7074;SDS011;3578;51.568;6.932;2023-03-12T04:55:49;3.20;;;2.40;;
7074;SDS011;3578;51.568;6.932;2023-03-12T04:58:18;3.20;;;2.40;;
7074;SDS011;3578;51.568;6.932;2023-03-12T05:00:46;2.30;;;2.20;;
7074;SDS011;3578;51.568;6.932;2023-03-12T05:03:14;2.43;;;1.90;;
7074;SDS011;3578;51.568;6.932;2023-03-12T05:05:41;7.03;;;2.97;;
7074;SDS011;3578;51.568;6.932;2023-03-12T05:08:08;3.37;;;3.07;;
7074;SDS011;3578;51.568;6.932;2023-03-12T05:10:36;2.80;;;2.47;;
7074;SDS011;3578;51.568;6.932;2023-03-12T05:13:03;2.70;;;2.27;;
7074;SDS011;3578;51.568;6.932;2023-03-12T05:15:38;4.97;;;2.63;;
7074;SDS011;3578;51.568;6.932;2023-03-12T05:18:05;3.23;;;2.43;;
7074;SDS011;3578;51.568;6.932;2023-03-12T05:20:32;6.53;;;2.77;;
7074;SDS011;3578;51.568;6.932;2023-03-12T05:23:00;3.73;;;2.37;;
7074;SDS011;3578;51.568;6.932;2023-03-12T05:25:27;5.10;;;2.77;;
7074;SDS011;3578;51.568;6.932;2023-03-12T05:27:54;3.70;;;2.80;;
7074;SDS011;3578;51.568;6.932;2023-03-12T05:30:21;3.37;;;2.53;;
7074;SDS011;3578;51.568;6.932;2023-03-12T05:32:49;5.50;;;2.37;;
7074;SDS011;3578;51.568;6.932;2023-03-12T05:35:17;3.30;;;2.43;;
7074;SDS011;3578;51.568;6.932;2023-03-12T05:37:44;4.80;;;2.40;;
7074;SDS011;3578;51.568;6.932;2023-03-12T05:40:11;3.60;;;2.50;;
7074;SDS011;3578;51.568;6.932;2023-03-12T05:42:39;4.33;;;2.53;;
7074;SDS011;3578;51.568;6.932;2023-03-12T05:45:06;2.47;;;1.83;;
7074;SDS011;3578;51.568;6.932;2023-03-12T05:47:35;6.17;;;2.20;;
7074;SDS011;3578;51.568;6.932;2023-03-12T05:50:03;2.67;;;2.27;;
7074;SDS011;3578;51.568;6.932;2023-03-12T05:52:31;6.20;;;2.60;;
7074;SDS011;3578;51.568;6.932;2023-03-12T05:54:58;3.60;;;2.57;;
7074;SDS011;3578;51.568;6.932;2023-03-12T05:57:25;4.93;;;2.50;;
7074;SDS011;3578;51.568;6.932;2023-03-12T05:59:52;2.53;;;2.33;;
7074;SDS011;3578;51.568;6.932;2023-03-12T06:02:19;3.90;;;2.47;;
7074;SDS011;3578;51.568;6.932;2023-03-12T06:04:46;6.37;;;2.53;;
7074;SDS011;3578;51.568;6.932;2023-03-12T06:07:14;6.63;;;2.87;;
7074;SDS011;3578;51.568;6.932;2023-03-12T06:09:41;6.13;;;2.47;;
7074;SDS011;3578;51.568;6.932;2023-03-12T06:12:08;3.80;;;2.80;;
7074;SDS011;3578;51.568;6.932;2023-03-12T06:14:35;2.53;;;2.30;;
7074;SDS011;3578;51.568;6.932;2023-03-12T06:17:02;5.23;;;2.80;;
7074;SDS011;3578;51.568;6.932;2023-03-12T06:19:29;6.93;;;2.43;;
7074;SDS011;3578;51.568;6.932;2023-03-12T06:21:56;3.90;;;2.63;;
7074;SDS011;3578;51.568;6.932;2023-03-12T06:24:25;4.43;;;3.03;;
7074;SDS011;3578;51.568;6.932;2023-03-12T06:26:52;5.03;;;2.90;;
7074;SDS011;3578;51.568;6.932;2023-03-12T06:29:19;4.40;;;2.73;;
7074;SDS011;3578;51.568;6.932;2023-03-12T06:31:47;7.50;;;3.20;;
7074;SDS011;3578;51.568;6.932;2023-03-12T06:34:16;5.50;;;2.30;;
7074;SDS011;3578;51.568;6.932;2023-03-12T06:36:43;7.03;;;3.10;;
7074;SDS011;3578;51.568;6.932;2023-03-12T06:39:10;8.43;;;2.60;;
7074;SDS011;3578;51.568;6.932;2023-03-12T06:41:38;6.67;;;3.00;;
7074;SDS011;3578;51.568;6.932;2023-03-12T06:44:05;5.73;;;3.17;;
7074;SDS011;3578;51.568;6.932;2023-03-12T06:46:32;5.10;;;2.93;;
7074;SDS011;3578;51.568;6.932;2023-03-12T06:48:59;4.10;;;2.53;;
7074;SDS011;3578;51.568;6.932;2023-03-12T06:51:26;4.00;;;2.90;;
7074;SDS011;3578;51.568;6.932;2023-03-12T06:53:53;8.03;;;3.10;;
7074;SDS011;3578;51.568;6.932;2023-03-12T06:56:20;11.83;;;3.03;;
7074;SDS011;3578;51.568;6.932;2023-03-12T06:58:49;3.70;;;2.83;;
7074;SDS011;3578;51.568;6.932;2023-03-12T07:01:16;6.47;;;3.57;;
7074;SDS011;3578;51.568;6.932;2023-03-12T07:03:43;2.83;;;2.50;;
7074;SDS011;3578;51.568;6.932;2023-03-12T07:06:13;7.30;;;2.70;;
7074;SDS011;3578;51.568;6.932;2023-03-12T07:08:42;5.97;;;3.40;;
7074;SDS011;3578;51.568;6.932;2023-03-12T07:11:10;12.23;;;4.10;;
7074;SDS011;3578;51.568;6.932;2023-03-12T07:13:38;3.20;;;2.90;;
7074;SDS011;3578;51.568;6.932;2023-03-12T07:16:07;4.07;;;3.00;;
7074;SDS011;3578;51.568;6.932;2023-03-12T07:18:34;4.20;;;3.80;;
7074;SDS011;3578;51.568;6.932;2023-03-12T07:21:01;4.20;;;3.43;;
7074;SDS011;3578;51.568;6.932;2023-03-12T07:23:29;4.93;;;3.20;;
7074;SDS011;3578;51.568;6.932;2023-03-12T07:25:56;7.40;;;3.87;;
7074;SDS011;3578;51.568;6.932;2023-03-12T07:28:23;6.90;;;3.10;;
7074;SDS011;3578;51.568;6.932;2023-03-12T07:30:50;3.67;;;3.30;;
7074;SDS011;3578;51.568;6.932;2023-03-12T07:33:18;8.17;;;3.60;;
7074;SDS011;3578;51.568;6.932;2023-03-12T07:35:47;5.73;;;3.87;;
7074;SDS011;3578;51.568;6.932;2023-03-12T07:38:14;4.90;;;3.03;;
7074;SDS011;3578;51.568;6.932;2023-03-12T07:40:41;6.13;;;3.50;;
7074;SDS011;3578;51.568;6.932;2023-03-12T07:43:08;7.57;;;3.40;;
7074;SDS011;3578;51.568;6.932;2023-03-12T07:45:36;6.60;;;2.90;;
7074;SDS011;3578;51.568;6.932;2023-03-12T07:48:04;5.53;;;3.50;;
7074;SDS011;3578;51.568;6.932;2023-03-12T07:50:33;11.47;;;3.50;;
7074;SDS011;3578;51.568;6.932;2023-03-12T07:53:01;5.40;;;3.37;;
7074;SDS011;3578;51.568;6.932;2023-03-12T07:55:29;6.20;;;3.33;;
7074;SDS011;3578;51.568;6.932;2023-03-12T07:57:56;4.43;;;3.10;;
7074;SDS011;3578;51.568;6.932;2023-03-12T08:00:23;3.63;;;3.33;;
7074;SDS011;3578;51.568;6.932;2023-03-12T08:02:51;4.80;;;3.70;;
7074;SDS011;3578;51.568;6.932;2023-03-12T08:05:18;8.23;;;4.03;;
7074;SDS011;3578;51.568;6.932;2023-03-12T08:07:50;5.23;;;3.60;;
7074;SDS011;3578;51.568;6.932;2023-03-12T08:10:17;3.93;;;3.60;;
7074;SDS011;3578;51.568;6.932;2023-03-12T08:12:46;5.20;;;3.73;;
7074;SDS011;3578;51.568;6.932;2023-03-12T08:15:14;10.97;;;3.60;;
7074;SDS011;3578;51.568;6.932;2023-03-12T08:17:41;4.17;;;3.87;;
7074;SDS011;3578;51.568;6.932;2023-03-12T08:20:08;5.63;;;3.70;;
7074;SDS011;3578;51.568;6.932;2023-03-12T08:22:37;8.73;;;3.77;;
7074;SDS011;3578;51.568;6.932;2023-03-12T08:25:08;6.17;;;3.83;;
7074;SDS011;3578;51.568;6.932;2023-03-12T08:27:36;7.00;;;3.57;;
7074;SDS011;3578;51.568;6.932;2023-03-12T08:30:03;3.80;;;3.50;;
7074;SDS011;3578;51.568;6.932;2023-03-12T08:32:32;8.30;;;4.23;;
7074;SDS011;3578;51.568;6.932;2023-03-12T08:34:59;6.80;;;4.10;;
7074;SDS011;3578;51.568;6.932;2023-03-12T08:37:26;6.63;;;3.77;;
7074;SDS011;3578;51.568;6.932;2023-03-12T08:39:53;4.70;;;3.57;;
7074;SDS011;3578;51.568;6.932;2023-03-12T08:42:21;4.60;;;3.80;;
7074;SDS011;3578;51.568;6.932;2023-03-12T08:44:48;11.60;;;4.13;;
7074;SDS011;3578;51.568;6.932;2023-03-12T08:47:15;6.73;;;3.40;;
7074;SDS011;3578;51.568;6.932;2023-03-12T08:49:42;7.03;;;3.80;;
7074;SDS011;3578;51.568;6.932;2023-03-12T08:52:09;5.37;;;3.77;;
7074;SDS011;3578;51.568;6.932;2023-03-12T08:54:36;7.43;;;3.77;;
7074;SDS011;3578;51.568;6.932;2023-03-12T08:57:03;6.00;;;3.63;;
7074;SDS011;3578;51.568;6.932;2023-03-12T08:59:32;7.13;;;3.87;;
7074;SDS011;3578;51.568;6.932;2023-03-12T09:01:59;7.70;;;3.70;;
7074;SDS011;3578;51.568;6.932;2023-03-12T09:04:26;4.10;;;3.73;;
7074;SDS011;3578;51.568;6.932;2023-03-12T09:06:53;4.30;;;3.90;;
7074;SDS011;3578;51.568;6.932;2023-03-12T09:09:20;6.47;;;4.03;;
7074;SDS011;3578;51.568;6.932;2023-03-12T09:11:47;6.03;;;4.77;;
7074;SDS011;3578;51.568;6.932;2023-03-12T09:14:14;5.60;;;4.00;;
7074;SDS011;3578;51.568;6.932;2023-03-12T09:16:42;4.40;;;4.00;;
7074;SDS011;3578;51.568;6.932;2023-03-12T09:19:09;7.30;;;4.30;;
7074;SDS011;3578;51.568;6.932;2023-03-12T09:21:36;5.23;;;4.53;;
7074;SDS011;3578;51.568;6.932;2023-03-12T09:24:04;4.40;;;4.03;;
7074;SDS011;3578;51.568;6.932;2023-03-12T09:26:31;7.27;;;4.20;;
7074;SDS011;3578;51.568;6.932;2023-03-12T09:28:58;5.37;;;4.87;;
7074;SDS011;3578;51.568;6.932;2023-03-12T09:31:25;5.10;;;4.60;;
7074;SDS011;3578;51.568;6.932;2023-03-12T09:33:54;6.00;;;4.70;;
7074;SDS011;3578;51.568;6.932;2023-03-12T09:36:21;6.43;;;4.80;;
7074;SDS011;3578;51.568;6.932;2023-03-12T09:38:48;7.20;;;5.30;;
7074;SDS011;3578;51.568;6.932;2023-03-12T09:41:16;5.17;;;4.77;;
7074;SDS011;3578;51.568;6.932;2023-03-12T09:43:46;4.40;;;4.00;;
7074;SDS011;3578;51.568;6.932;2023-03-12T09:46:21;5.30;;;4.30;;
7074;SDS011;3578;51.568;6.932;2023-03-12T09:48:54;4.73;;;4.20;;
7074;SDS011;3578;51.568;6.932;2023-03-12T09:51:27;6.07;;;5.57;;
7074;SDS011;3578;51.568;6.932;2023-03-12T09:54:01;6.80;;;4.70;;
7074;SDS011;3578;51.568;6.932;2023-03-12T09:56:32;5.93;;;5.00;;
7074;SDS011;3578;51.568;6.932;2023-03-12T09:58:59;6.43;;;5.13;;
7074;SDS011;3578;51.568;6.932;2023-03-12T10:01:30;7.70;;;6.23;;
7074;SDS011;3578;51.568;6.932;2023-03-12T10:07:19;6.20;;;5.70;;
7074;SDS011;3578;51.568;6.932;2023-03-12T10:10:05;11.03;;;6.53;;
7074;SDS011;3578;51.568;6.932;2023-03-12T10:13:02;9.10;;;6.30;;
7074;SDS011;3578;51.568;6.932;2023-03-12T10:15:45;7.73;;;6.80;;
7074;SDS011;3578;51.568;6.932;2023-03-12T10:18:29;8.87;;;7.00;;
7074;SDS011;3578;51.568;6.932;2023-03-12T10:21:18;7.23;;;6.40;;
7074;SDS011;3578;51.568;6.932;2023-03-12T10:24:01;9.10;;;6.57;;
7074;SDS011;3578;51.568;6.932;2023-03-12T10:26:45;7.13;;;6.20;;
7074;SDS011;3578;51.568;6.932;2023-03-12T10:29:16;7.90;;;6.77;;
7074;SDS011;3578;51.568;6.932;2023-03-12T10:31:48;9.60;;;7.90;;
7074;SDS011;3578;51.568;6.932;2023-03-12T10:34:22;13.83;;;7.90;;
7074;SDS011;3578;51.568;6.932;2023-03-12T10:36:58;23.33;;;8.50;;
7074;SDS011;3578;51.568;6.932;2023-03-12T10:39:31;14.43;;;8.13;;
7074;SDS011;3578;51.568;6.932;2023-03-12T10:41:58;12.00;;;7.50;;
7074;SDS011;3578;51.568;6.932;2023-03-12T10:44:26;10.87;;;9.23;;
7074;SDS011;3578;51.568;6.932;2023-03-12T10:46:58;9.43;;;8.53;;
7074;SDS011;3578;51.568;6.932;2023-03-12T10:49:41;12.80;;;8.57;;
7074;SDS011;3578;51.568;6.932;2023-03-12T10:52:15;10.43;;;8.23;;
7074;SDS011;3578;51.568;6.932;2023-03-12T10:54:44;10.37;;;9.20;;
7074;SDS011;3578;51.568;6.932;2023-03-12T10:57:14;12.03;;;9.50;;
7074;SDS011;3578;51.568;6.932;2023-03-12T10:59:42;14.07;;;10.87;;
7074;SDS011;3578;51.568;6.932;2023-03-12T11:05:17;15.33;;;12.10;;
7074;SDS011;3578;51.568;6.932;2023-03-12T11:07:49;13.87;;;12.43;;
7074;SDS011;3578;51.568;6.932;2023-03-12T11:10:18;18.73;;;13.43;;
7074;SDS011;3578;51.568;6.932;2023-03-12T11:12:53;22.90;;;14.33;;
7074;SDS011;3578;51.568;6.932;2023-03-12T11:15:29;16.23;;;14.63;;
7074;SDS011;3578;51.568;6.932;2023-03-12T11:18:16;17.97;;;16.17;;
7074;SDS011;3578;51.568;6.932;2023-03-12T11:21:13;18.87;;;16.87;;
7074;SDS011;3578;51.568;6.932;2023-03-12T11:24:02;21.33;;;16.43;;
7074;SDS011;3578;51.568;6.932;2023-03-12T11:26:36;21.17;;;17.63;;
7074;SDS011;3578;51.568;6.932;2023-03-12T11:29:15;18.67;;;16.67;;
7074;SDS011;3578;51.568;6.932;2023-03-12T11:31:53;23.13;;;19.97;;
7074;SDS011;3578;51.568;6.932;2023-03-12T11:34:28;24.63;;;18.80;;
7074;SDS011;3578;51.568;6.932;2023-03-12T11:36:59;23.27;;;19.93;;
7074;SDS011;3578;51.568;6.932;2023-03-12T11:39:40;26.87;;;22.60;;
7074;SDS011;3578;51.568;6.932;2023-03-12T11:42:23;23.97;;;20.53;;
7074;SDS011;3578;51.568;6.932;2023-03-12T11:45:04;26.70;;;22.37;;
7074;SDS011;3578;51.568;6.932;2023-03-12T11:47:45;29.53;;;21.13;;
7074;SDS011;3578;51.568;6.932;2023-03-12T11:50:25;24.43;;;21.83;;
7074;SDS011;3578;51.568;6.932;2023-03-12T11:53:04;27.07;;;22.57;;
7074;SDS011;3578;51.568;6.932;2023-03-12T11:55:55;25.87;;;22.20;;
7074;SDS011;3578;51.568;6.932;2023-03-12T11:58:35;25.13;;;22.53;;
7074;SDS011;3578;51.568;6.932;2023-03-12T12:01:20;27.07;;;22.57;;
7074;SDS011;3578;51.568;6.932;2023-03-12T12:04:07;25.33;;;22.50;;
7074;SDS011;3578;51.568;6.932;2023-03-12T12:07:07;25.40;;;21.90;;
7074;SDS011;3578;51.568;6.932;2023-03-12T12:09:46;24.63;;;22.10;;
7074;SDS011;3578;51.568;6.932;2023-03-12T12:15:19;28.33;;;21.93;;
7074;SDS011;3578;51.568;6.932;2023-03-12T12:17:58;25.63;;;22.53;;
7074;SDS011;3578;51.568;6.932;2023-03-12T12:20:39;23.87;;;20.83;;
7074;SDS011;3578;51.568;6.932;2023-03-12T12:23:14;24.20;;;21.70;;
7074;SDS011;3578;51.568;6.932;2023-03-12T12:25:48;23.93;;;21.63;;
7074;SDS011;3578;51.568;6.932;2023-03-12T12:31:52;24.33;;;21.80;;
7074;SDS011;3578;51.568;6.932;2023-03-12T12:34:31;22.70;;;20.30;;
7074;SDS011;3578;51.568;6.932;2023-03-12T12:37:41;22.87;;;20.57;;
7074;SDS011;3578;51.568;6.932;2023-03-12T12:40:17;22.50;;;19.23;;
7074;SDS011;3578;51.568;6.932;2023-03-12T12:42:50;21.07;;;18.93;;
7074;SDS011;3578;51.568;6.932;2023-03-12T12:45:32;19.87;;;17.77;;
7074;SDS011;3578;51.568;6.932;2023-03-12T12:48:05;21.20;;;18.53;;
7074;SDS011;3578;51.568;6.932;2023-03-12T12:50:38;23.57;;;18.47;;
7074;SDS011;3578;51.568;6.932;2023-03-12T12:53:07;26.63;;;19.50;;
7074;SDS011;3578;51.568;6.932;2023-03-12T12:55:46;25.90;;;19.67;;
7074;SDS011;3578;51.568;6.932;2023-03-12T12:58:25;24.50;;;19.73;;
7074;SDS011;3578;51.568;6.932;2023-03-12T13:01:24;22.53;;;20.13;;
7074;SDS011;3578;51.568;6.932;2023-03-12T13:03:52;20.37;;;18.13;;
7074;SDS011;3578;51.568;6.932;2023-03-12T13:09:35;24.07;;;19.30;;
7074;SDS011;3578;51.568;6.932;2023-03-12T13:12:14;24.83;;;18.70;;
7074;SDS011;3578;51.568;6.932;2023-03-12T13:14:46;25.33;;;18.77;;
7074;SDS011;3578;51.568;6.932;2023-03-12T13:17:32;26.40;;;18.83;;
7074;SDS011;3578;51.568;6.932;2023-03-12T13:20:14;20.50;;;17.07;;
7074;SDS011;3578;51.568;6.932;2023-03-12T13:22:51;23.33;;;16.80;;
7074;SDS011;3578;51.568;6.932;2023-03-12T13:25:38;23.40;;;17.80;;
7074;SDS011;3578;51.568;6.932;2023-03-12T13:28:31;22.73;;;16.03;;
7074;SDS011;3578;51.568;6.932;2023-03-12T13:34:28;25.57;;;15.37;;
7074;SDS011;3578;51.568;6.932;2023-03-12T13:40:38;26.70;;;15.33;;
7074;SDS011;3578;51.568;6.932;2023-03-12T13:49:13;26.97;;;15.47;;
7074;SDS011;3578;51.568;6.932;2023-03-12T13:51:58;30.07;;;17.60;;
7074;SDS011;3578;51.568;6.932;2023-03-12T13:54:41;27.27;;;16.93;;
7074;SDS011;3578;51.568;6.932;2023-03-12T13:57:12;36.73;;;18.80;;
7074;SDS011;3578;51.568;6.932;2023-03-12T13:59:54;32.83;;;17.77;;
7074;SDS011;3578;51.568;6.932;2023-03-12T14:02:23;35.10;;;17.40;;
7074;SDS011;3578;51.568;6.932;2023-03-12T14:04:54;41.90;;;15.87;;
7074;SDS011;3578;51.568;6.932;2023-03-12T14:07:38;25.70;;;15.00;;
7074;SDS011;3578;51.568;6.932;2023-03-12T14:10:38;34.20;;;16.03;;
7074;SDS011;3578;51.568;6.932;2023-03-12T14:13:22;33.50;;;15.83;;
7074;SDS011;3578;51.568;6.932;2023-03-12T14:16:09;26.73;;;13.37;;
7074;SDS011;3578;51.568;6.932;2023-03-12T14:18:47;27.33;;;13.10;;
7074;SDS011;3578;51.568;6.932;2023-03-12T14:21:17;32.57;;;12.47;;
7074;SDS011;3578;51.568;6.932;2023-03-12T14:23:48;27.63;;;10.70;;
7074;SDS011;3578;51.568;6.932;2023-03-12T14:26:19;33.23;;;11.10;;
7074;SDS011;3578;51.568;6.932;2023-03-12T14:28:56;36.10;;;9.83;;
7074;SDS011;3578;51.568;6.932;2023-03-12T14:31:27;28.90;;;9.23;;
7074;SDS011;3578;51.568;6.932;2023-03-12T14:33:57;32.30;;;8.03;;
7074;SDS011;3578;51.568;6.932;2023-03-12T14:36:34;24.23;;;8.50;;
7074;SDS011;3578;51.568;6.932;2023-03-12T14:39:09;26.80;;;8.30;;
7074;SDS011;3578;51.568;6.932;2023-03-12T14:41:47;32.10;;;8.20;;
7074;SDS011;3578;51.568;6.932;2023-03-12T14:44:22;22.87;;;7.33;;
7074;SDS011;3578;51.568;6.932;2023-03-12T14:46:55;32.17;;;9.27;;
7074;SDS011;3578;51.568;6.932;2023-03-12T14:49:24;29.47;;;8.00;;
7074;SDS011;3578;51.568;6.932;2023-03-12T14:51:53;29.57;;;8.50;;
7074;SDS011;3578;51.568;6.932;2023-03-12T14:54:22;25.63;;;7.60;;
7074;SDS011;3578;51.568;6.932;2023-03-12T14:56:52;28.37;;;7.00;;
7074;SDS011;3578;51.568;6.932;2023-03-12T14:59:20;33.93;;;8.57;;
7074;SDS011;3578;51.568;6.932;2023-03-12T15:01:51;32.43;;;8.13;;
7074;SDS011;3578;51.568;6.932;2023-03-12T15:04:25;32.27;;;7.37;;
7074;SDS011;3578;51.568;6.932;2023-03-12T15:06:55;26.20;;;7.30;;
7074;SDS011;3578;51.568;6.932;2023-03-12T15:09:26;24.33;;;8.13;;
7074;SDS011;3578;51.568;6.932;2023-03-12T15:11:56;30.17;;;7.20;;
7074;SDS011;3578;51.568;6.932;2023-03-12T15:14:27;29.43;;;7.53;;
7074;SDS011;3578;51.568;6.932;2023-03-12T15:16:58;26.87;;;6.97;;
7074;SDS011;3578;51.568;6.932;2023-03-12T15:19:27;26.43;;;8.17;;
7074;SDS011;3578;51.568;6.932;2023-03-12T15:22:02;30.90;;;6.60;;
7074;SDS011;3578;51.568;6.932;2023-03-12T15:24:36;32.33;;;7.60;;
7074;SDS011;3578;51.568;6.932;2023-03-12T15:27:18;35.13;;;7.67;;
7074;SDS011;3578;51.568;6.932;2023-03-12T15:29:55;26.30;;;7.27;;
7074;SDS011;3578;51.568;6.932;2023-03-12T15:32:25;29.07;;;7.77;;
7074;SDS011;3578;51.568;6.932;2023-03-12T15:34:55;29.83;;;7.27;;
7074;SDS011;3578;51.568;6.932;2023-03-12T15:37:25;35.43;;;8.73;;
7074;SDS011;3578;51.568;6.932;2023-03-12T15:39:57;24.23;;;7.03;;
7074;SDS011;3578;51.568;6.932;2023-03-12T15:42:26;25.03;;;7.03;;
7074;SDS011;3578;51.568;6.932;2023-03-12T15:44:54;30.10;;;6.90;;
7074;SDS011;3578;51.568;6.932;2023-03-12T15:47:23;25.83;;;6.90;;
7074;SDS011;3578;51.568;6.932;2023-03-12T15:49:54;25.67;;;6.40;;
7074;SDS011;3578;51.568;6.932;2023-03-12T15:52:26;31.20;;;7.07;;
7074;SDS011;3578;51.568;6.932;2023-03-12T15:55:00;23.10;;;6.73;;
7074;SDS011;3578;51.568;6.932;2023-03-12T15:57:33;28.10;;;7.23;;